Time;durP1;ratioP1;P1;durP2;ratioP2;P2;SDS_P1;SDS_P2;PMS_P1;PMS_P2;Temp;Humidity;BMP_temperature;BMP_pressure;BME280_temperature;BME280_humidity;BME280_pressure;Samples;Min_cycle;Max_cycle;Signal;HPM_P1;HPM_P2
2021/03/26 00:00:52;;;;;;;31.33;18.30;;;9.50;89.20;;;9.85;73.91;100947.63;5049891;28;20041;-81
2021/03/26 00:03:24;;;;;;;30.75;17.58;;;9.50;89.40;;;9.84;73.63;100933.16;5055624;28;20527;-81
2021/03/26 00:05:56;;;;;;;29.88;18.67;;;9.50;89.50;;;9.81;73.57;100940.84;5055048;28;20040;-81
2021/03/26 00:08:23;;;;;;;;;;;9.50;89.30;;;9.74;73.98;100936.03;5055924;28;20049;-81
2021/03/26 00:10:50;;;;;;;31.95;17.30;;;9.40;89.30;;;9.76;73.93;100927.72;5054863;28;19925;-81
2021/03/26 00:13:17;;;;;;;31.33;19.13;;;9.40;89.40;;;9.78;73.79;100931.13;5055454;28;20134;-80
2021/03/26 00:15:45;;;;;;;29.58;18.45;;;9.40;89.40;;;9.75;74.00;100932.31;5054677;28;20048;-81
2021/03/26 00:18:12;;;;;;;34.20;18.30;;;9.40;89.50;;;9.77;73.90;100937.59;5055218;28;20079;-81
2021/03/26 00:20:39;;;;;;;32.70;18.75;;;9.40;89.60;;;9.76;74.08;100925.84;5055279;28;20085;-81
2021/03/26 00:23:06;;;;;;;35.63;19.23;;;9.50;89.70;;;9.78;73.84;100931.97;5054526;28;20114;-81
2021/03/26 00:25:34;;;;;;;34.80;18.08;;;9.40;89.60;;;9.76;73.80;100933.16;5054137;28;20048;-80
2021/03/26 00:28:03;;;;;;;34.75;19.00;;;9.40;89.70;;;9.75;73.87;100932.31;5054692;28;20056;-81
2021/03/26 00:30:30;;;;;;;32.28;18.52;;;9.40;89.70;;;9.71;74.06;100932.81;5054072;28;20290;-81
2021/03/26 00:32:57;;;;;;;32.38;19.00;;;9.30;89.70;;;9.71;73.96;100930.09;5052883;28;20064;-81
2021/03/26 00:35:26;;;;;;;32.03;19.08;;;9.30;89.90;;;9.70;74.18;100934.69;5054826;28;20040;-81
2021/03/26 00:37:53;;;;;;;35.70;19.00;;;9.30;89.80;;;9.65;74.14;100928.06;5053702;28;20357;-81
2021/03/26 00:40:21;;;;;;;33.85;19.27;;;9.30;89.90;;;9.65;74.25;100930.78;5055323;28;20100;-81
2021/03/26 00:42:50;;;;;;;33.42;19.02;;;9.30;89.90;;;9.62;74.12;100931.13;5052590;28;20045;-81
2021/03/26 00:45:20;;;;;;;33.22;20.05;;;9.20;89.90;;;9.58;74.22;100926.03;5054757;28;20052;-81
2021/03/26 00:47:47;;;;;;;33.70;19.20;;;9.20;90.00;;;9.59;74.11;100926.88;5052183;28;20102;-80
2021/03/26 00:50:18;;;;;;;33.55;20.05;;;9.20;90.00;;;9.59;73.93;100926.88;5054196;28;20052;-81
2021/03/26 00:52:47;;;;;;;37.40;19.92;;;9.20;90.00;;;9.56;74.22;100921.78;5053821;28;20487;-81
2021/03/26 00:55:15;;;;;;;34.78;19.45;;;9.20;90.10;;;9.55;74.59;100918.19;5051399;28;20701;-81
2021/03/26 00:57:42;;;;;;;35.17;19.27;;;9.20;90.00;;;9.53;74.73;100916.69;5039579;28;20046;-81
2021/03/26 01:00:19;;;;;;;31.67;19.10;;;9.20;90.10;;;9.54;74.80;100921.94;5052421;28;20047;-81
2021/03/26 01:02:47;;;;;;;35.97;19.70;;;9.20;90.30;;;9.53;74.87;100913.97;5058745;28;20053;-81
2021/03/26 01:05:17;;;;;;;32.15;18.92;;;9.20;90.30;;;9.53;74.52;100911.25;5053566;28;20041;-81
2021/03/26 01:07:46;;;;;;;32.97;19.15;;;9.20;90.40;;;9.53;74.07;100917.50;5052002;28;20510;-81
2021/03/26 01:10:16;;;;;;;36.17;19.40;;;9.20;90.20;;;9.51;74.70;100919.56;5055079;28;20593;-81
2021/03/26 01:12:43;;;;;;;30.95;19.02;;;9.20;90.30;;;9.46;74.32;100912.91;5052539;28;20045;-81
2021/03/26 01:15:16;;;;;;;35.28;19.23;;;9.20;90.30;;;9.46;74.40;100912.91;5053886;28;20079;-81
2021/03/26 01:17:44;;;;;;;33.88;19.73;;;9.10;90.30;;;9.43;74.78;100911.41;5058302;28;20045;-81
2021/03/26 01:20:16;;;;;;;31.65;19.75;;;9.10;90.30;;;9.41;74.93;100909.88;5053321;28;20045;-80
2021/03/26 01:22:43;;;;;;;40.78;20.25;;;9.10;90.40;;;9.42;74.63;100912.41;5044697;28;20049;-81
2021/03/26 01:25:24;;;;;;;34.40;18.85;;;9.10;90.50;;;9.44;74.85;100904.09;5053209;28;20049;-80
2021/03/26 01:28:03;;;;;;;33.50;19.00;;;9.10;90.50;;;9.45;74.76;100897.66;5069046;28;20057;-81
2021/03/26 01:30:32;;;;;;;36.97;19.30;;;9.10;90.50;;;9.44;74.84;100895.94;5053026;28;20041;-81
2021/03/26 01:33:00;;;;;;;35.92;19.13;;;9.10;90.50;;;9.45;74.60;100894.94;5052449;28;20061;-81
2021/03/26 01:35:30;;;;;;;41.22;20.58;;;9.10;90.60;;;9.41;74.77;100886.28;5053603;28;20099;-81
2021/03/26 01:37:58;;;;;;;33.42;19.50;;;9.10;90.50;;;9.41;74.52;100890.88;5052443;28;20053;-80
2021/03/26 01:40:30;;;;;;;34.70;19.52;;;9.10;90.60;;;9.42;74.68;100887.94;5070416;28;20045;-81
2021/03/26 01:43:10;;;;;;;38.92;20.65;;;9.10;90.70;;;9.38;74.47;100873.00;5051666;28;20510;-81
2021/03/26 01:45:38;;;;;;;43.45;21.05;;;9.00;90.50;;;9.37;74.60;100872.16;5053445;28;20037;-81
2021/03/26 01:48:08;;;;;;;38.63;21.55;;;9.00;90.50;;;9.38;74.61;100867.56;5053302;28;20045;-81
2021/03/26 01:50:37;;;;;;;35.57;20.23;;;9.00;90.50;;;9.32;74.84;100866.38;5072540;28;20128;-81
2021/03/26 01:53:07;;;;;;;37.67;20.75;;;9.00;90.60;;;9.31;74.73;100871.97;5048459;28;20048;-81
2021/03/26 01:55:41;;;;;;;38.53;21.00;;;8.90;90.60;;;9.30;74.73;100868.41;5056769;28;20403;-81
2021/03/26 01:58:11;;;;;;;36.40;19.98;;;9.00;90.70;;;9.31;74.65;100870.13;5072354;28;20547;-81
2021/03/26 02:00:46;;;;;;;40.88;20.13;;;9.00;90.70;;;9.31;75.12;100859.28;5056632;28;20108;-81
2021/03/26 02:03:20;;;;;;;34.92;20.08;;;9.00;90.70;;;9.36;74.84;100873.19;5055060;28;20052;-81
2021/03/26 02:05:54;;;;;;;35.95;20.95;;;9.00;90.70;;;9.32;75.28;100869.09;5050341;28;20418;-81
2021/03/26 02:08:34;;;;;;;37.78;21.55;;;9.00;90.70;;;9.29;74.79;100861.31;5057244;28;20041;-81
2021/03/26 02:11:20;;;;;;;38.63;20.85;;;9.00;90.70;;;9.28;74.76;100858.75;5057091;28;20107;-81
2021/03/26 02:13:49;;;;;;;38.97;21.38;;;9.00;90.70;;;9.29;74.71;100864.03;5057133;28;20040;-81
2021/03/26 02:16:25;;;;;;;37.55;21.73;;;9.00;90.70;;;9.30;74.69;100857.56;5056515;28;20053;-81
2021/03/26 02:19:24;;;;;;;39.17;21.85;;;9.00;90.80;;;9.30;75.07;100856.72;5054544;28;20056;-81
2021/03/26 02:21:52;;;;;;;43.22;22.58;;;9.00;90.70;;;9.32;74.38;100855.53;5055842;28;20056;-80
2021/03/26 02:24:20;;;;;;;37.95;21.48;;;9.00;90.60;;;9.29;75.01;100850.44;5056805;28;20473;-81
2021/03/26 02:26:52;;;;;;;;;;;8.90;90.60;;;9.29;74.72;100855.00;5056055;28;20044;-81
2021/03/26 02:29:23;;;;;;;38.42;21.77;;;8.90;90.70;;;9.23;75.02;100858.41;5055645;28;19929;-81
2021/03/26 02:32:22;;;;;;;39.67;22.08;;;8.90;90.80;;;9.20;75.01;100859.59;5041654;28;20060;-81
2021/03/26 02:35:16;;;;;;;40.37;22.80;;;8.80;90.80;;;9.20;75.21;100859.59;5051074;28;20064;-80
2021/03/26 02:37:50;;;;;;;39.15;21.65;;;8.80;90.80;;;9.22;74.70;100849.41;5070759;28;20582;-81
2021/03/26 02:40:26;;;;;;;39.50;22.00;;;8.80;90.90;;;9.22;74.90;100852.13;5056164;28;20047;-81
2021/03/26 02:43:08;;;;;;;45.17;22.67;;;8.80;90.80;;;9.25;74.77;100848.22;5054730;28;20053;-80
2021/03/26 02:45:45;;;;;;;43.72;24.23;;;8.80;91.00;;;9.20;74.94;100848.72;5055851;28;20049;-81
2021/03/26 02:48:21;;;;;;;44.38;24.30;;;8.80;90.80;;;9.17;74.58;100846.34;5054117;28;20107;-81
2021/03/26 02:51:00;;;;;;;44.95;23.60;;;8.80;90.80;;;9.15;74.80;100851.09;5055266;28;20053;-81
2021/03/26 02:54:02;;;;;;;44.80;23.58;;;8.80;91.00;;;9.14;74.72;100846.69;5049976;28;20056;-81
2021/03/26 02:56:35;;;;;;;41.45;22.95;;;8.80;91.10;;;9.13;74.82;100850.41;5072492;28;20549;-81
2021/03/26 02:59:11;;;;;;;46.58;24.17;;;8.70;91.10;;;9.15;74.85;100849.22;5054513;28;20057;-81
2021/03/26 03:01:47;;;;;;;43.03;22.98;;;8.70;91.10;;;9.12;74.70;100851.41;5055300;28;20102;-81
2021/03/26 03:04:18;;;;;;;45.00;23.83;;;8.70;91.10;;;9.11;74.98;100852.44;5054135;28;20071;-80
2021/03/26 03:06:52;;;;;;;43.63;23.27;;;8.70;91.10;;;9.12;74.64;100851.41;5055939;28;20044;-81
2021/03/26 03:09:20;;;;;;;44.75;23.15;;;8.70;91.10;;;9.10;74.80;100842.59;5055527;28;20507;-81
2021/03/26 03:11:55;;;;;;;40.85;21.83;;;8.70;91.10;;;9.07;74.48;100841.06;5056111;28;20068;-80
2021/03/26 03:14:29;;;;;;;43.38;23.30;;;8.70;91.20;;;9.06;75.18;100844.78;5053801;28;20048;-81
2021/03/26 03:17:02;;;;;;;41.40;22.65;;;8.70;91.30;;;9.06;74.77;100843.94;5055316;28;20060;-81
2021/03/26 03:19:41;;;;;;;43.15;23.67;;;8.70;91.20;;;9.04;75.01;100835.97;5055817;28;20517;-81
2021/03/26 03:22:13;;;;;;;45.85;24.42;;;8.70;91.20;;;9.00;74.74;100843.59;5054092;28;20044;-81
2021/03/26 03:24:42;;;;;;;;;;;8.60;91.20;;;9.02;74.77;100843.41;5055003;28;20049;-81
2021/03/26 03:27:27;;;;;;;41.13;23.25;;;8.60;91.20;;;8.95;74.82;100843.25;5054605;28;20031;-81
2021/03/26 03:29:58;;;;;;;;;;;8.60;91.10;;;8.95;75.12;100843.25;5055270;28;20071;-81
2021/03/26 03:32:45;;;;;;;44.30;23.55;;;8.60;91.30;;;8.93;74.55;100844.41;5047481;28;19924;-81
2021/03/26 03:35:19;;;;;;;42.97;22.83;;;8.50;91.30;;;8.93;75.13;100844.41;5055168;28;20052;-80
2021/03/26 03:37:59;;;;;;;44.47;23.65;;;8.60;91.30;;;8.89;74.87;100832.19;5052924;28;20105;-81
2021/03/26 03:40:32;;;;;;;44.42;24.20;;;8.60;91.30;;;8.90;75.16;100833.91;5054155;28;20048;-81
2021/03/26 03:43:08;;;;;;;43.92;23.25;;;8.50;91.50;;;8.93;75.15;100834.41;5070261;28;20165;-81
2021/03/26 03:45:45;;;;;;;40.95;23.58;;;8.50;91.30;;;8.86;74.98;100838.81;5055238;28;20040;-81
2021/03/26 03:48:36;;;;;;;41.65;24.15;;;8.50;91.50;;;8.86;75.06;100829.81;5053284;28;20223;-81
2021/03/26 03:51:10;;;;;;;41.65;24.38;;;8.50;91.40;;;8.84;75.10;100832.69;5053468;28;20041;-81
2021/03/26 03:53:43;;;;;;;42.83;24.17;;;8.40;91.40;;;8.85;74.75;100825.41;5055073;28;20041;-80
2021/03/26 03:56:32;;;;;;;39.50;24.00;;;8.40;91.40;;;8.86;75.09;100827.94;5045706;28;20751;-81
2021/03/26 03:59:05;;;;;;;41.65;23.92;;;8.50;91.60;;;8.82;75.29;100825.75;5047268;28;20049;-81
2021/03/26 04:01:44;;;;;;;41.80;23.92;;;8.40;91.40;;;8.80;75.01;100820.47;5053896;28;20415;-81
2021/03/26 04:04:19;;;;;;;45.22;24.15;;;8.30;91.40;;;8.78;74.67;100819.81;5050572;28;20145;-81
2021/03/26 04:06:51;;;;;;;46.28;25.13;;;8.40;91.50;;;8.78;74.99;100819.81;5054214;28;20099;-81
2021/03/26 04:09:22;;;;;;;46.55;25.75;;;8.40;91.50;;;8.76;75.08;100822.69;5038949;28;20053;-80
2021/03/26 04:12:00;;;;;;;47.78;26.25;;;8.40;91.50;;;8.73;75.09;100822.16;5069176;28;20053;-80
2021/03/26 04:14:54;;;;;;;47.95;25.45;;;8.40;91.60;;;8.73;75.12;100816.72;5052700;28;20084;-81
2021/03/26 04:17:31;;;;;;;48.72;25.75;;;8.40;91.50;;;8.74;75.46;100822.00;5053453;28;20052;-81
2021/03/26 04:20:22;;;;;;;50.75;27.40;;;8.40;91.60;;;8.74;75.68;100818.44;5070090;28;20479;-81
2021/03/26 04:22:53;;;;;;;45.33;26.13;;;8.40;91.70;;;8.72;75.30;100825.88;5052708;28;20044;-81
2021/03/26 04:25:35;;;;;;;50.63;26.92;;;8.30;91.50;;;8.75;75.38;100811.97;5053776;28;20045;-81
2021/03/26 04:28:41;;;;;;;48.05;25.60;;;8.30;91.80;;;8.73;74.93;100817.56;5040071;28;20045;-81
2021/03/26 04:31:42;;;;;;;48.03;25.63;;;8.30;91.80;;;8.71;74.98;100810.63;5054846;28;20049;-81
2021/03/26 04:34:15;;;;;;;48.28;26.77;;;8.30;91.80;;;8.72;75.12;100809.59;5051241;28;20528;-81
2021/03/26 04:36:50;;;;;;;45.20;26.35;;;8.30;91.90;;;8.68;75.31;100808.22;5054733;28;20056;-81
2021/03/26 04:39:55;;;;;;;47.15;27.08;;;8.20;91.60;;;8.68;75.09;100808.22;5043015;28;20052;-81
2021/03/26 04:42:32;;;;;;;51.00;26.95;;;8.30;91.80;;;8.65;74.94;100803.16;5053684;28;20072;-81
2021/03/26 04:45:11;;;;;;;48.40;27.15;;;8.20;91.70;;;8.61;75.44;100803.47;5051686;28;20071;-81
2021/03/26 04:48:02;;;;;;;50.72;28.15;;;8.30;92.00;;;8.60;75.10;100801.78;5069671;28;20052;-81
2021/03/26 04:51:02;;;;;;;48.85;27.77;;;8.30;92.10;;;8.55;75.72;100808.72;5051454;28;20073;-80
2021/03/26 04:53:56;;;;;;;49.40;27.00;;;8.20;91.90;;;8.59;75.41;100804.66;5048063;28;20087;-80
2021/03/26 04:56:29;;;;;;;49.40;27.08;;;8.20;91.90;;;8.58;75.17;100800.22;5053422;28;20449;-81
2021/03/26 04:59:28;;;;;;;46.20;26.77;;;8.20;92.00;;;8.60;75.38;100807.22;5069145;28;20045;-81
2021/03/26 05:02:10;;;;;;;52.70;28.80;;;8.20;91.90;;;8.58;75.73;100801.06;5046844;28;20052;-80
2021/03/26 05:04:42;;;;;;;48.33;26.67;;;8.20;92.00;;;8.61;75.58;100808.03;5052261;28;20065;-81
2021/03/26 05:07:16;;;;;;;53.45;27.85;;;8.20;92.10;;;8.60;75.71;100801.78;5053320;28;20155;-80
2021/03/26 05:09:50;;;;;;;51.40;28.27;;;8.20;92.10;;;8.64;75.63;100801.44;5051839;28;20037;-81
2021/03/26 05:12:29;;;;;;;48.58;28.17;;;8.20;92.10;;;8.62;75.40;100796.16;5053684;28;20049;-81
2021/03/26 05:15:07;;;;;;;47.88;27.45;;;8.20;92.10;;;8.67;75.63;100801.94;5051967;28;20068;-81
2021/03/26 05:17:44;;;;;;;51.15;27.25;;;8.20;92.00;;;8.64;74.81;100802.28;5053619;28;20053;-80
2021/03/26 05:20:29;;;;;;;49.35;27.83;;;8.20;91.90;;;8.61;75.21;100797.19;5047854;28;20053;-81
2021/03/26 05:23:37;;;;;;;52.67;28.77;;;8.20;91.80;;;8.58;74.79;100803.78;5054315;28;20577;-81
2021/03/26 05:26:27;;;;;;;49.83;26.80;;;8.10;92.00;;;8.59;75.22;100800.06;5038820;28;20053;-82
2021/03/26 05:29:17;;;;;;;50.95;28.15;;;8.20;91.90;;;8.59;75.14;100800.06;5051354;28;20089;-80
2021/03/26 05:31:59;;;;;;;50.22;27.98;;;8.20;91.90;;;8.61;75.15;100798.03;5054377;28;20052;-82
2021/03/26 05:34:57;;;;;;;46.03;26.95;;;8.20;91.90;;;8.64;75.53;100790.56;5054670;28;20439;-80
2021/03/26 05:37:36;;;;;;;50.08;27.73;;;8.20;92.00;;;8.61;75.03;100792.59;5054913;28;20052;-81
2021/03/26 05:40:58;;;;;;;52.63;29.77;;;8.30;92.00;;;8.64;75.65;100796.00;5052380;28;20113;-82
2021/03/26 05:44:23;;;;;;;52.88;29.33;;;8.30;92.00;;;8.65;75.67;100798.56;5052800;28;20047;-81
2021/03/26 05:47:17;;;;;;;53.72;28.95;;;8.40;91.90;;;8.69;75.67;100796.38;5071638;28;20144;-82
2021/03/26 05:50:24;;;;;;;52.42;28.17;;;8.40;91.90;;;8.66;75.48;100794.81;5054267;28;20048;-81
2021/03/26 05:53:31;;;;;;;50.63;28.80;;;8.40;91.80;;;8.69;75.59;100793.66;5051857;28;20045;-81
2021/03/26 05:56:33;;;;;;;54.38;28.65;;;8.50;92.00;;;8.72;75.71;100798.72;5054041;28;20057;-82
2021/03/26 05:59:23;;;;;;;48.53;27.42;;;8.50;91.80;;;8.72;76.10;100794.19;5047652;28;20187;-82
2021/03/26 06:02:21;;;;;;;48.75;27.98;;;8.60;91.70;;;8.75;75.84;100796.53;5070994;28;20060;-81
2021/03/26 06:06:19;;;;;;;50.33;27.85;;;8.60;91.60;;;8.75;76.38;100792.97;5000668;28;20679;-81
2021/03/26 06:09:54;;;;;;;48.88;28.08;;;8.70;91.60;;;8.81;76.17;100789.59;5028409;28;20068;-81
2021/03/26 06:13:23;;;;;;;57.78;29.35;;;8.80;91.20;;;8.86;76.63;100789.13;5052034;28;20052;-81
2021/03/26 06:16:59;;;;;;;55.67;29.08;;;9.00;91.10;;;8.88;76.18;100790.63;5041942;28;20427;-80
2021/03/26 06:20:21;;;;;;;59.78;31.20;;;9.00;90.60;;;8.95;76.17;100799.81;5049089;28;20102;-80
2021/03/26 06:23:58;;;;;;;56.45;30.50;;;9.20;90.50;;;9.00;76.37;100797.47;5022879;28;20052;-80
2021/03/26 06:27:07;;;;;;;53.30;28.42;;;9.30;90.40;;;9.00;76.52;100792.03;5053144;28;20064;-80
2021/03/26 06:29:47;;;;;;;55.45;28.25;;;9.30;89.90;;;9.07;76.41;100799.50;5053772;28;20068;-80
2021/03/26 06:33:13;;;;;;;50.42;27.52;;;9.40;89.80;;;9.11;76.56;100798.13;5053651;28;20095;-80
2021/03/26 06:36:30;;;;;;;51.20;26.70;;;9.50;89.50;;;9.13;76.66;100801.53;5054023;28;20041;-80
2021/03/26 06:39:30;;;;;;;51.30;27.70;;;9.60;89.10;;;9.19;76.54;100798.13;5053236;28;20081;-80
2021/03/26 06:42:40;;;;;;;47.60;27.42;;;9.70;88.80;;;9.24;76.17;100803.09;5052638;28;20045;-82
2021/03/26 06:45:38;;;;;;;52.58;28.70;;;9.80;88.40;;;9.27;76.44;100792.72;5051046;28;20045;-82
2021/03/26 06:48:27;;;;;;;48.80;27.27;;;9.90;88.30;;;9.31;76.13;100793.22;5052253;28;20553;-84
2021/03/26 06:51:33;;;;;;;48.50;27.35;;;10.00;87.80;;;9.34;76.31;100791.00;5053196;28;20041;-80
2021/03/26 06:54:34;;;;;;;48.65;26.63;;;10.10;87.20;;;9.41;76.43;100793.06;5051579;28;20048;-81
2021/03/26 06:57:33;;;;;;;48.72;27.35;;;10.30;87.00;;;9.38;76.53;100786.94;5054171;28;20040;-81
2021/03/26 07:00:32;;;;;;;49.10;27.20;;;10.40;86.50;;;9.42;76.38;100784.72;5053503;28;20098;-83
2021/03/26 07:03:39;;;;;;;52.63;29.50;;;10.50;86.10;;;9.48;76.40;100777.75;5048034;28;20041;-83
2021/03/26 07:06:50;;;;;;;46.50;27.17;;;10.60;85.70;;;9.57;75.88;100783.00;5015208;28;20053;-83
2021/03/26 07:09:49;;;;;;;56.00;29.92;;;10.70;85.60;;;9.60;76.05;100770.97;5060971;28;20525;-83
2021/03/26 07:12:45;;;;;;;50.08;27.30;;;10.70;85.10;;;9.64;75.75;100777.75;5052019;28;20078;-83
2021/03/26 07:15:15;;;;;;;49.40;27.48;;;10.80;84.70;;;9.70;76.01;100777.06;5003681;28;20087;-83
2021/03/26 07:18:17;;;;;;;48.83;26.85;;;10.90;84.60;;;9.72;75.67;100776.91;5052435;28;20596;-84
2021/03/26 07:21:12;;;;;;;52.55;27.80;;;11.00;83.90;;;9.79;75.80;100775.19;5052346;28;20056;-83
2021/03/26 07:24:38;;;;;;;54.15;27.00;;;11.10;83.90;;;9.85;75.16;100774.50;5049992;28;20483;-83
2021/03/26 07:27:22;;;;;;;49.22;26.10;;;11.20;83.10;;;9.87;74.59;100764.28;5019843;28;20049;-82
2021/03/26 07:30:25;;;;;;;49.08;25.13;;;11.30;82.40;;;9.95;75.48;100763.41;5052087;28;20410;-82
2021/03/26 07:33:11;;;;;;;47.20;25.65;;;11.40;82.90;;;10.02;75.43;100767.13;5029019;28;20761;-82
2021/03/26 07:35:58;;;;;;;44.03;25.25;;;11.50;82.50;;;10.07;75.26;100756.59;5050543;28;20056;-83
2021/03/26 07:39:19;;;;;;;45.90;24.92;;;11.60;82.10;;;10.14;75.19;100763.00;5050155;28;20091;-82
2021/03/26 07:42:08;;;;;;;46.95;25.10;;;11.60;81.80;;;10.22;74.39;100764.00;5046060;28;20053;-82
2021/03/26 07:45:17;;;;;;;45.28;24.30;;;11.80;81.00;;;10.26;74.04;100754.47;5050155;28;20446;-82
2021/03/26 07:48:12;;;;;;;43.97;25.02;;;11.80;80.70;;;10.31;74.38;100758.38;5047256;28;20140;-83
2021/03/26 07:50:50;;;;;;;43.60;24.92;;;11.90;81.00;;;10.34;73.38;100757.19;5050238;28;20048;-82
2021/03/26 07:53:44;;;;;;;42.55;23.58;;;11.90;80.00;;;10.40;73.28;100767.38;5048552;28;20846;-82
2021/03/26 07:56:41;;;;;;;41.90;24.33;;;12.00;79.60;;;10.46;73.64;100763.94;5050001;28;20052;-83
2021/03/26 07:59:42;;;;;;;43.28;23.80;;;12.10;79.90;;;10.52;73.64;100762.38;5048238;28;20044;-83
2021/03/26 08:02:38;;;;;;;39.15;22.90;;;12.20;79.40;;;10.59;73.33;100760.63;5044322;28;20052;-82
2021/03/26 08:05:19;;;;;;;42.08;22.83;;;12.30;79.00;;;10.64;72.65;100762.81;5044430;28;20118;-82
2021/03/26 08:08:20;;;;;;;42.25;22.48;;;12.40;78.60;;;10.72;72.96;100760.06;5047403;28;20044;-82
2021/03/26 08:10:51;;;;;;;43.00;24.15;;;12.50;78.60;;;10.78;74.02;100751.16;5041491;28;20064;-81
2021/03/26 08:13:43;;;;;;;42.97;23.73;;;12.60;78.90;;;10.85;72.71;100752.16;5045595;28;20048;-81
2021/03/26 08:16:45;;;;;;;40.30;23.48;;;12.60;77.90;;;10.87;71.94;100758.25;5047850;28;20049;-81
2021/03/26 08:19:21;;;;;;;42.85;23.50;;;12.60;77.20;;;10.90;72.11;100757.88;5049237;28;20502;-81
2021/03/26 08:22:00;;;;;;;38.28;23.52;;;12.70;77.30;;;10.95;72.01;100760.91;5047465;28;20052;-81
2021/03/26 08:24:59;;;;;;;40.28;23.30;;;12.70;77.40;;;11.00;71.50;100762.22;5048522;28;20053;-81
2021/03/26 08:27:43;;;;;;;40.90;22.08;;;12.80;76.80;;;11.05;70.90;100757.09;5046662;28;20040;-81
2021/03/26 08:30:41;;;;;;;38.97;22.73;;;12.80;76.30;;;11.07;72.09;100764.06;5049145;28;20056;-81
2021/03/26 08:33:55;;;;;;;36.40;21.50;;;12.90;76.70;;;11.16;71.13;100762.13;5048862;28;20111;-82
2021/03/26 08:36:35;;;;;;;35.28;21.98;;;12.90;76.70;;;11.21;71.43;100758.84;5018060;28;20061;-81
2021/03/26 08:39:36;;;;;;;35.78;21.45;;;13.00;76.20;;;11.24;70.69;100756.59;5048626;28;20033;-81
2021/03/26 08:42:22;;;;;;;37.45;21.08;;;13.00;75.90;;;11.28;70.47;100755.19;5049085;28;20052;-81
2021/03/26 08:44:55;;;;;;;34.22;20.80;;;13.10;75.70;;;11.38;71.05;100748.66;5049308;28;20049;-82
2021/03/26 08:47:34;;;;;;;33.55;21.13;;;13.10;76.20;;;11.37;70.70;100753.25;5049042;28;20048;-81
2021/03/26 08:50:27;;;;;;;35.97;20.60;;;13.20;75.80;;;11.48;70.72;100749.22;5048879;28;20052;-81
2021/03/26 08:53:39;;;;;;;40.67;20.23;;;13.20;75.40;;;11.50;69.70;100753.47;5043127;28;20056;-81
2021/03/26 08:56:26;;;;;;;36.67;20.35;;;13.20;75.10;;;11.53;69.45;100747.63;5040537;28;20061;-81
2021/03/26 08:59:24;;;;;;;32.78;19.42;;;13.30;74.50;;;11.64;69.79;100750.97;5049670;28;20046;-81
2021/03/26 09:02:50;;;;;;;34.25;19.05;;;13.30;75.30;;;11.68;67.83;100749.56;5043974;28;20522;-81
2021/03/26 09:05:47;;;;;;;30.10;18.88;;;13.40;73.80;;;11.71;69.11;100749.19;5042211;28;20054;-82
2021/03/26 09:08:35;;;;;;;31.17;19.60;;;13.40;73.80;;;11.73;68.90;100753.41;5041782;28;20047;-81
2021/03/26 09:11:42;;;;;;;32.67;18.58;;;13.50;74.30;;;11.76;68.75;100749.47;5044065;28;20041;-82
2021/03/26 09:14:56;;;;;;;34.55;19.40;;;13.50;73.60;;;11.78;69.83;100752.84;5035510;28;20037;-81
2021/03/26 09:17:30;;;;;;;35.08;18.75;;;13.60;73.50;;;11.91;68.72;100744.06;5041982;28;20060;-81
2021/03/26 09:20:05;;;;;;;28.67;16.63;;;13.60;73.90;;;11.92;68.06;100748.50;5042364;28;20041;-81
2021/03/26 09:22:56;;;;;;;30.70;17.15;;;13.60;72.90;;;11.93;67.14;100742.81;5048308;28;20049;-81
2021/03/26 09:25:42;;;;;;;28.98;17.00;;;13.60;72.30;;;11.95;67.57;100752.72;5047852;28;20107;-80
2021/03/26 09:28:23;;;;;;;31.02;17.00;;;13.70;72.40;;;12.00;66.75;100733.91;5043144;28;20064;-81
2021/03/26 09:31:01;;;;;;;30.92;18.20;;;13.70;72.10;;;12.05;67.35;100742.34;5050799;28;20437;-82
2021/03/26 09:33:29;;;;;;;32.53;17.33;;;13.70;72.20;;;12.09;66.88;100736.34;5048803;28;20095;-82
2021/03/26 09:36:00;;;;;;;36.17;18.92;;;13.70;72.10;;;12.10;66.91;100737.19;5047974;28;20053;-81
2021/03/26 09:38:37;;;;;;;34.55;16.83;;;13.80;71.50;;;12.09;67.13;100730.88;5049588;28;20124;-81
2021/03/26 09:41:20;;;;;;;30.85;16.88;;;13.80;71.50;;;12.17;65.92;100726.38;5047947;28;20082;-81
2021/03/26 09:43:57;;;;;;;29.13;16.95;;;13.80;71.30;;;12.21;66.91;100730.41;5049315;28;20033;-82
2021/03/26 09:46:36;;;;;;;29.05;16.77;;;13.90;71.60;;;12.24;65.90;100727.28;5050272;28;20037;-82
2021/03/26 09:49:18;;;;;;;27.35;16.88;;;13.90;71.10;;;12.26;64.99;100722.47;5049696;28;20110;-84
2021/03/26 09:51:49;;;;;;;25.58;15.43;;;14.00;70.50;;;12.28;65.38;100721.28;5048877;28;20048;-82
2021/03/26 09:54:24;;;;;;;28.55;15.95;;;14.00;70.40;;;12.30;66.26;100715.63;5048902;28;20033;-80
2021/03/26 09:57:05;;;;;;;26.02;15.43;;;14.00;71.00;;;12.37;65.49;100705.63;5043488;28;20049;-82
2021/03/26 09:59:46;;;;;;;28.67;14.88;;;14.10;70.10;;;12.40;65.02;100709.84;5044523;28;20780;-85
2021/03/26 10:02:32;;;;;;;24.35;13.70;;;14.10;69.60;;;12.47;65.52;100697.97;5043964;28;20049;-81
2021/03/26 10:05:12;;;;;;;22.50;13.27;;;14.20;70.30;;;12.45;65.38;100699.19;5049861;28;20498;-82
2021/03/26 10:07:47;;;;;;;24.25;11.75;;;14.20;69.50;;;12.51;63.10;100695.72;5048673;28;20041;-83
2021/03/26 10:13:13;;;;;;;26.80;11.30;;;14.30;67.10;;;12.61;61.63;100687.22;5052772;28;20045;-82
2021/03/26 10:15:46;;;;;;;19.73;10.10;;;14.40;66.90;;;12.70;61.02;100694.25;5045065;28;20048;-82
2021/03/26 10:18:17;;;;;;;25.35;11.00;;;14.40;66.10;;;12.71;61.02;100690.44;5048828;28;20045;-82
2021/03/26 10:20:51;;;;;;;22.98;10.63;;;14.50;66.10;;;12.70;61.54;100684.16;5049747;28;20048;-82
2021/03/26 10:23:34;;;;;;;15.23;9.55;;;14.50;66.10;;;12.71;61.42;100685.00;5049077;28;20040;-82
2021/03/26 10:26:13;;;;;;;18.88;10.05;;;14.50;65.50;;;12.82;62.45;100675.44;5056439;28;20052;-82
2021/03/26 10:29:17;;;;;;;17.73;9.65;;;14.60;66.40;;;12.87;60.07;100675.69;5057426;28;20047;-82
2021/03/26 10:31:47;;;;;;;23.38;9.30;;;14.60;65.10;;;12.82;59.30;100676.28;5048146;28;20049;-82
2021/03/26 10:34:18;;;;;;;16.70;8.75;;;14.50;64.00;;;12.73;58.86;100666.53;5052636;28;20041;-82
2021/03/26 10:36:52;;;;;;;20.98;9.52;;;14.50;63.60;;;12.67;59.57;100670.88;5046843;28;20040;-82
2021/03/26 10:39:25;;;;;;;16.98;9.73;;;14.40;64.20;;;12.64;59.48;100667.69;5045767;28;20045;-82
2021/03/26 10:42:10;;;;;;;19.33;9.80;;;14.40;63.60;;;12.62;59.29;100647.94;5051800;28;20041;-82
2021/03/26 10:45:02;;;;;;;16.60;8.85;;;14.40;63.60;;;12.71;60.38;100654.94;5048410;28;20067;-82
2021/03/26 10:47:35;;;;;;;21.52;10.38;;;14.50;64.70;;;12.81;60.48;100647.28;5045618;28;20052;-82
2021/03/26 10:50:22;;;;;;;18.17;10.05;;;14.60;64.30;;;12.89;59.68;100646.31;5042430;28;20072;-82
2021/03/26 10:53:00;;;;;;;18.00;10.38;;;14.70;63.80;;;13.03;60.02;100644.53;5049403;28;20222;-83
2021/03/26 10:55:32;;;;;;;20.13;10.60;;;14.80;64.70;;;13.04;60.37;100635.28;5053401;28;20479;-82
2021/03/26 10:58:05;;;;;;;19.98;10.73;;;14.90;64.30;;;13.05;60.04;100634.25;5050793;28;20041;-82
2021/03/26 11:00:39;;;;;;;21.33;11.20;;;15.00;63.50;;;13.16;60.39;100632.88;5050633;28;20056;-84
2021/03/26 11:03:12;;;;;;;19.52;10.50;;;15.00;64.30;;;13.20;59.94;100635.00;5052418;28;20037;-83
2021/03/26 11:05:50;;;;;;;18.67;10.32;;;15.10;63.20;;;13.21;59.32;100628.50;5051844;28;20068;-84
2021/03/26 11:08:40;;;;;;;19.80;10.25;;;15.10;63.10;;;13.16;59.60;100625.50;5051336;28;20044;-83
2021/03/26 11:11:21;;;;;;;19.77;10.27;;;15.20;62.50;;;13.24;58.62;100622.59;5051399;28;20052;-83
2021/03/26 11:14:19;;;;;;;21.20;11.23;;;15.30;62.00;;;13.21;58.96;100625.75;5050304;28;20045;-83
2021/03/26 11:16:59;;;;;;;29.23;10.60;;;15.30;61.60;;;13.19;59.08;100616.88;5051357;28;20550;-83
2021/03/26 11:19:32;;;;;;;22.02;10.43;;;15.30;61.70;;;13.15;58.83;100609.31;5053141;28;20503;-82
2021/03/26 11:22:07;;;;;;;19.25;10.55;;;15.30;61.50;;;13.16;59.44;100609.09;5051998;28;20068;-81